66VG weather

Southside Regional Medical Center Heliport
Petersburg, Virginia, United States

Public forecast

Using degrees Fahrenheit for public forecast. Weather courtesy of forecast.io.

METAR (pilot weather report)

Closest report is Dinwiddie County Airport, 7.0 nm (13.0 km) W. Retrieved 2019/01/17 16:35 UTC (16 minutes ago):

KPTB 171635Z AUTO 08005KT 10SM OVC041 05/M02 A3035 RMK AO2 T00471023

TAF (pilot weather forecast)

Closest forecast is Richmond International Airport, 19.5 nm (36.1 km) N. Retrieved 2019/01/17 12:22 UTC (4 hours ago):

TAF KRIC 171120Z 1712/1812 00000KT P6SM BKN045 FM171400 05004KT P6SM BKN080 FM172200 13004KT P6SM OVC060 FM180200 16004KT 6SM -RA OVC060 FM180500 17005KT 6SM -RA OVC030 FM180700 20005KT P6SM OVC025